Hlavní strana
METAR-TAF:

METAR-TAF

Letiště :

Letiště Bělehrad

Bělehrad, Srbsko

zeměpisná šířka: 44-49N, zeměpisná délka: 020-17E, výška: 96 m

Aktuální stav počasí

Zpráva byla vytvořena před 15 minutami, v 04:30 UTC
Východní vítr 7 kt
Teplota 4°C
Vlhkost vzduchu 75%
Tlak 1028 hPa
Viditelnost 10 km a více
Žádná oblačnost pod 1500 m, nevyskytují se cumulonimby.

METAR: LYBE 170430Z 09007KT CAVOK 04/M00 Q1028 NOSIG

Čas: 05:45 (04:45 UTC)

Předpověď počasí

Zpráva byla vytvořena před 5 hodinami a 45 minutami, v 23:00 UTC
Předpověď platná od 17 v 00 UTC do 17 v 24 UTC
Východní vítr 7 kt
Viditelnost 10 km a více
Polojasno ve výšce 4000 ft
Dočasný
od 17 v 08 UTC do 17 v 16 UTC
Východní vítr 17 kt

TAF: LYBE 162300Z 1700/1724 08007KT 9999 SCT040 TX07/1712Z TN00/1705Z TEMPO 1708/1716 10017KT

Stav a předpovědi počasí z více než 4 000 letišť (zprávy METAR a TAF).

Červené a žluté tečky na mapě představují dostupné meteorologické stanice.

Když kurzor umístíte na tečku, zobrazí se název stanice.

Pak kliknutím zobrazíte stav a předpověď počasí.

Chcete-li změnit mapu, kliknutím na zelené tlačítko se znaménkem +mapu přiblížíte, kliknutím na zelené tlačítko se znaménkem – mapu oddálíte a kliknutím na zelené šipky přejdete na sousední mapy.


METAR-TAF: